createdAt,value
2022-08-02T00:26:24.905Z,99.90
2022-08-02T04:13:20.613Z,99.90
2022-08-02T04:38:49.944Z,99.90
2022-08-02T04:41:46.465Z,99.90
2022-08-02T04:44:23.194Z,99.90
2022-08-02T04:47:06.472Z,99.90
2022-08-02T04:51:01.638Z,99.90
2022-08-02T04:57:01.956Z,99.90
2022-08-02T05:21:56.181Z,99.90
2022-08-02T05:24:30.078Z,99.90
2022-08-02T05:41:54.635Z,99.90
2022-08-02T06:14:39.003Z,99.90
2022-08-02T06:22:31.641Z,99.90
2022-08-02T06:28:50.220Z,99.90
2022-08-02T06:35:13.990Z,99.90
2022-08-02T06:38:13.577Z,99.90
2022-08-02T07:03:02.982Z,99.90
2022-08-02T07:05:51.186Z,99.90
2022-08-02T07:08:59.458Z,99.90
2022-08-02T07:11:40.946Z,99.90
2022-08-02T07:14:16.719Z,99.90
2022-08-02T07:17:20.107Z,99.90
2022-08-02T07:19:50.614Z,99.90
2022-08-02T07:23:04.722Z,99.90
2022-08-02T07:29:57.442Z,99.90
2022-08-02T07:32:26.750Z,99.90
2022-08-02T07:34:59.144Z,99.90
2022-08-02T07:37:52.998Z,99.90
2022-08-02T07:47:59.386Z,99.90
2022-08-02T07:54:16.854Z,99.90
2022-08-02T07:57:29.921Z,99.90
2022-08-02T08:04:47.074Z,99.90
2022-08-02T08:11:39.443Z,99.90
2022-08-02T08:25:02.926Z,99.90
2022-08-02T08:27:37.059Z,99.90
2022-08-02T08:30:11.013Z,99.90
2022-08-02T08:36:02.791Z,99.90
2022-08-02T08:41:38.226Z,99.90
2022-08-02T08:44:05.737Z,99.40
2022-08-02T08:50:17.126Z,96.40
2022-08-02T08:53:06.247Z,94.70
2022-08-02T08:55:35.055Z,93.70
2022-08-02T08:58:03.711Z,93.10
2022-08-02T09:00:32.525Z,91.80
2022-08-02T09:03:02.604Z,91.20
2022-08-02T09:05:32.741Z,90.70
2022-08-02T09:07:59.986Z,89.60
2022-08-02T09:10:43.456Z,87.70
2022-08-02T09:13:38.811Z,85.70
2022-08-02T09:16:12.363Z,83.60
2022-08-02T09:18:46.328Z,79.00
2022-08-02T09:21:24.373Z,74.40
2022-08-02T09:23:52.839Z,76.40
2022-08-02T09:26:31.997Z,75.00
2022-08-02T09:29:02.551Z,71.80
2022-08-02T09:31:29.555Z,70.50
2022-08-02T09:33:58.842Z,66.80
2022-08-02T09:36:28.358Z,67.50
2022-08-02T09:39:01.643Z,67.90
2022-08-02T09:41:35.344Z,68.00
2022-08-02T09:44:06.483Z,66.80
2022-08-02T09:46:38.416Z,64.40
2022-08-02T09:49:11.532Z,62.70
2022-08-02T09:51:48.720Z,62.00
2022-08-02T09:54:28.768Z,62.20
2022-08-02T09:56:58.508Z,62.60
2022-08-02T09:59:26.806Z,62.40
2022-08-02T10:02:01.697Z,60.80
2022-08-02T10:04:34.575Z,58.00
2022-08-02T10:07:19.830Z,55.10
2022-08-02T10:09:49.142Z,54.70
2022-08-02T10:12:16.661Z,55.40
2022-08-02T10:14:44.024Z,55.20
2022-08-02T10:17:11.488Z,55.50
2022-08-02T10:20:00.318Z,55.40
2022-08-02T10:22:26.203Z,55.00
2022-08-02T10:24:56.717Z,55.80
2022-08-02T10:27:25.884Z,54.00
2022-08-02T10:29:57.752Z,53.50
2022-08-02T10:32:30.391Z,54.40
2022-08-02T10:35:19.526Z,55.70
2022-08-02T10:37:56.889Z,55.50
2022-08-02T10:40:24.216Z,54.00
2022-08-02T10:42:53.641Z,54.20
2022-08-02T10:45:22.827Z,53.70
2022-08-02T10:48:01.781Z,52.50
2022-08-02T10:50:46.968Z,51.40
2022-08-02T10:53:34.687Z,50.50
2022-08-02T10:56:04.260Z,49.70
2022-08-02T10:58:32.605Z,49.90
2022-08-02T11:01:04.995Z,48.70
2022-08-02T11:03:32.916Z,47.90
2022-08-02T11:06:25.493Z,47.00
2022-08-02T11:09:33.365Z,47.50
2022-08-02T11:12:02.445Z,46.10
2022-08-02T11:14:29.660Z,46.20
2022-08-02T11:16:56.513Z,45.40
2022-08-02T11:19:32.884Z,45.80
2022-08-02T11:22:05.835Z,45.30
2022-08-02T11:24:34.860Z,43.60
2022-08-02T11:27:04.824Z,44.40
2022-08-02T11:29:42.291Z,44.80
2022-08-02T11:32:18.025Z,45.50
2022-08-02T11:34:49.086Z,46.20
2022-08-02T11:37:34.767Z,45.20
2022-08-02T11:40:07.127Z,44.90
2022-08-02T11:42:39.915Z,45.20
2022-08-02T11:45:08.924Z,47.00
2022-08-02T11:47:51.977Z,48.50
2022-08-02T11:50:29.769Z,48.80
2022-08-02T11:52:57.855Z,49.70
2022-08-02T11:55:32.176Z,50.10
2022-08-02T11:58:04.793Z,49.00
2022-08-02T12:00:32.181Z,47.70
2022-08-02T12:02:59.209Z,45.60
2022-08-02T12:05:51.227Z,43.00
2022-08-02T12:08:13.787Z,41.50
2022-08-02T12:10:49.125Z,41.60
2022-08-02T12:13:15.951Z,43.80
2022-08-02T12:15:45.687Z,44.50
2022-08-02T12:18:36.202Z,44.50
2022-08-02T12:21:04.524Z,43.40
2022-08-02T12:23:31.578Z,41.60
2022-08-02T12:26:04.814Z,41.00
2022-08-02T12:28:35.636Z,40.80
2022-08-02T12:31:02.561Z,40.10
2022-08-02T12:33:44.541Z,39.30
2022-08-02T12:36:22.601Z,38.10
2022-08-02T12:38:58.178Z,35.90
2022-08-02T12:41:31.788Z,37.50
2022-08-02T12:43:59.990Z,37.40
2022-08-02T12:46:27.272Z,37.20
2022-08-02T12:49:16.562Z,36.70
2022-08-02T12:51:56.670Z,36.30
2022-08-02T12:54:32.785Z,35.90
2022-08-02T12:57:13.812Z,36.70
2022-08-02T12:59:42.655Z,36.60
2022-08-02T13:02:12.087Z,36.10
2022-08-02T13:04:39.533Z,36.10
2022-08-02T13:07:06.546Z,35.20
2022-08-02T13:09:38.508Z,35.70
2022-08-02T13:12:07.210Z,34.80
2022-08-02T13:14:40.350Z,35.20
2022-08-02T13:17:09.703Z,35.80
2022-08-02T13:19:37.103Z,36.50
2022-08-02T13:22:04.489Z,35.00
2022-08-02T13:24:41.080Z,34.00
2022-08-02T13:27:21.155Z,33.40
2022-08-02T13:29:51.970Z,34.20
2022-08-02T13:32:19.229Z,34.80
2022-08-02T13:34:46.584Z,35.40
2022-08-02T13:37:13.636Z,35.40
2022-08-02T13:39:40.547Z,35.70
2022-08-02T13:42:07.552Z,36.00
2022-08-02T13:44:35.377Z,36.40
2022-08-02T13:47:02.876Z,36.10
2022-08-02T13:49:51.407Z,36.10
2022-08-02T13:52:17.428Z,35.90
2022-08-02T13:54:44.512Z,36.60
2022-08-02T13:57:11.517Z,36.60
2022-08-02T13:59:56.190Z,36.40
2022-08-02T14:02:26.452Z,36.10
2022-08-02T14:04:53.332Z,36.10
2022-08-02T14:07:20.582Z,35.70
2022-08-02T14:09:47.640Z,35.20
2022-08-02T14:12:15.001Z,35.70
2022-08-02T14:14:42.473Z,36.10
2022-08-02T14:17:09.431Z,36.40
2022-08-02T14:19:36.562Z,38.10
2022-08-02T14:22:11.857Z,38.90
2022-08-02T14:24:41.739Z,38.40
2022-08-02T14:27:09.198Z,38.50
2022-08-02T14:29:36.183Z,38.20
2022-08-02T14:32:03.433Z,38.50
2022-08-02T14:34:30.414Z,38.30
2022-08-02T14:36:57.535Z,38.60
2022-08-02T14:39:24.613Z,38.90
2022-08-02T14:41:59.821Z,39.20
2022-08-02T14:44:28.657Z,39.90
2022-08-02T14:46:56.493Z,40.60
2022-08-02T14:49:25.972Z,40.60
2022-08-02T14:51:57.870Z,42.60
2022-08-02T14:54:31.595Z,42.40
2022-08-02T14:57:00.918Z,42.30
2022-08-02T14:59:28.618Z,42.90
2022-08-02T15:01:55.887Z,42.70
2022-08-02T15:04:23.397Z,41.10
2022-08-02T15:06:50.396Z,40.70
2022-08-02T15:09:17.460Z,41.80
2022-08-02T15:11:47.772Z,42.70
2022-08-02T15:14:25.733Z,42.40
2022-08-02T15:16:58.573Z,42.40
2022-08-02T15:19:54.617Z,43.00
2022-08-02T15:22:16.684Z,42.70
2022-08-02T15:24:46.197Z,42.60
2022-08-02T15:27:14.924Z,42.80
2022-08-02T15:29:46.037Z,43.20
2022-08-02T15:32:14.508Z,42.80
2022-08-02T15:34:41.749Z,41.60
2022-08-02T15:37:08.937Z,41.30
2022-08-02T15:39:36.006Z,42.30
2022-08-02T15:42:03.649Z,43.10
2022-08-02T15:44:30.808Z,42.40
2022-08-02T15:46:58.009Z,41.90
2022-08-02T15:52:39.209Z,42.30
2022-08-02T15:55:07.608Z,41.10
2022-08-02T15:57:37.703Z,41.30
2022-08-02T16:00:30.091Z,42.00
2022-08-02T16:02:57.509Z,42.40
2022-08-02T16:05:24.605Z,42.40
2022-08-02T16:07:51.760Z,42.30
2022-08-02T16:10:23.397Z,42.60
2022-08-02T16:12:50.625Z,43.20
2022-08-02T16:15:17.868Z,43.40
2022-08-02T16:17:54.501Z,43.30
2022-08-02T16:20:27.635Z,43.20
2022-08-02T16:22:54.584Z,43.80
2022-08-02T16:25:21.683Z,44.40
2022-08-02T16:28:07.231Z,44.40
2022-08-02T16:31:04.834Z,44.00
2022-08-02T16:33:35.682Z,44.60
2022-08-02T16:36:03.077Z,44.30
2022-08-02T16:38:39.473Z,44.40
2022-08-02T16:41:13.065Z,44.20
2022-08-02T16:43:46.772Z,43.40
2022-08-02T16:46:14.214Z,43.40
2022-08-02T16:48:51.251Z,42.80
2022-08-02T16:51:19.366Z,42.30
2022-08-02T16:53:59.326Z,42.40
2022-08-02T16:56:28.614Z,42.80
2022-08-02T16:58:59.534Z,43.20
2022-08-02T17:02:10.978Z,43.00
2022-08-02T17:04:22.946Z,43.20
2022-08-02T17:06:51.929Z,43.40
2022-08-02T17:10:02.372Z,43.30
2022-08-02T17:12:31.024Z,43.70
2022-08-02T17:14:58.049Z,44.30
2022-08-02T17:17:34.189Z,44.40
2022-08-02T17:20:08.765Z,44.20
2022-08-02T17:26:07.922Z,44.60
2022-08-02T17:35:43.236Z,46.10
2022-08-02T17:42:01.280Z,46.00
2022-08-02T17:52:49.611Z,46.40
2022-08-02T17:54:31.188Z,47.00
2022-08-02T18:24:05.646Z,49.00
2022-08-02T18:27:04.672Z,49.40
2022-08-02T18:29:38.473Z,50.10
2022-08-02T18:32:11.729Z,50.90
2022-08-02T21:52:15.372Z,99.90
2022-08-02T21:55:14.857Z,99.90
2022-08-02T22:20:38.037Z,99.90
2022-08-02T22:28:39.342Z,99.90
2022-08-02T22:31:41.127Z,99.90
2022-08-02T23:27:50.149Z,99.90
